createdAt,value
2022-11-21T00:04:58.428Z,82.60
2022-11-21T00:11:01.395Z,31.00
2022-11-21T00:17:03.498Z,28.67
2022-11-21T00:23:06.078Z,18.47
2022-11-21T00:29:08.558Z,18.10
2022-11-21T00:35:10.587Z,13.90
2022-11-21T00:41:12.792Z,14.30
2022-11-21T00:47:14.921Z,18.05
2022-11-21T00:53:17.123Z,12.00
2022-11-21T00:59:19.396Z,15.68
2022-11-21T01:05:21.669Z,14.07
2022-11-21T01:11:23.875Z,22.60
2022-11-21T01:17:25.967Z,11.18
2022-11-21T01:23:28.411Z,13.85
2022-11-21T01:29:30.748Z,11.07
2022-11-21T01:35:32.928Z,7.30
2022-11-21T01:41:41.025Z,2.92
2022-11-21T01:47:43.160Z,6.57
2022-11-21T01:53:49.513Z,8.90
2022-11-21T02:00:01.109Z,3.83
2022-11-21T02:06:10.126Z,0.82
2022-11-21T02:12:40.516Z,0.85
2022-11-21T02:18:42.852Z,1.30
2022-11-21T02:25:04.164Z,2.35
2022-11-21T02:31:06.420Z,1.33
2022-11-21T02:37:09.742Z,0.65
2022-11-21T02:43:20.457Z,1.20
2022-11-21T02:49:31.163Z,1.42
2022-11-21T02:55:33.483Z,2.15
2022-11-21T03:01:35.605Z,0.70
2022-11-21T03:07:38.265Z,0.75
2022-11-21T03:13:40.528Z,0.80
2022-11-21T03:19:42.734Z,0.90
2022-11-21T03:25:44.753Z,1.25
2022-11-21T03:31:46.815Z,1.40
2022-11-21T03:37:49.417Z,2.17
2022-11-21T03:49:54.051Z,3.42
2022-11-21T03:55:56.350Z,4.95
2022-11-21T04:01:58.458Z,3.55
2022-11-21T04:08:00.616Z,2.55
2022-11-21T04:14:03.111Z,5.45
2022-11-21T04:20:05.803Z,5.35
2022-11-21T04:32:10.250Z,8.88
2022-11-21T04:38:13.614Z,5.00
2022-11-21T04:44:15.805Z,6.82
2022-11-21T04:50:18.846Z,5.35
2022-11-21T04:56:20.989Z,5.45
2022-11-21T05:02:23.680Z,3.13
2022-11-21T05:14:28.454Z,3.30
2022-11-21T05:26:38.797Z,5.68
2022-11-21T05:32:40.866Z,4.65
2022-11-21T05:38:43.396Z,4.50
2022-11-21T05:50:49.774Z,4.47
2022-11-21T05:56:52.114Z,8.05
2022-11-21T06:03:13.151Z,11.27
2022-11-21T06:09:15.207Z,5.05
2022-11-21T06:15:17.421Z,6.43
2022-11-21T06:21:24.744Z,4.65
2022-11-21T06:27:28.708Z,5.43
2022-11-21T06:33:31.122Z,12.30
2022-11-21T06:39:33.404Z,8.88
2022-11-21T06:45:35.856Z,13.43
2022-11-21T06:51:37.904Z,7.20
2022-11-21T06:57:40.381Z,4.50
2022-11-21T07:03:42.805Z,4.05
2022-11-21T07:09:45.256Z,6.95
2022-11-21T07:15:49.240Z,8.93
2022-11-21T07:21:51.323Z,4.38
2022-11-21T07:27:53.609Z,7.63
2022-11-21T07:33:56.144Z,8.07
2022-11-21T07:39:59.150Z,5.45
2022-11-21T07:46:01.944Z,8.32
2022-11-21T07:52:06.150Z,5.43
2022-11-21T07:58:11.243Z,10.57
2022-11-21T08:04:26.132Z,9.80
2022-11-21T08:10:51.795Z,9.10
2022-11-21T08:17:18.811Z,6.03
2022-11-21T08:23:43.547Z,8.65
2022-11-21T08:30:10.086Z,11.40
2022-11-21T08:36:34.850Z,8.23
2022-11-21T08:43:00.333Z,9.70
2022-11-21T08:49:25.189Z,11.23
2022-11-21T08:55:50.073Z,3.30
2022-11-21T09:02:14.891Z,8.50
2022-11-21T09:08:39.952Z,7.15
2022-11-21T09:15:23.426Z,4.43
2022-11-21T09:21:51.555Z,7.03
2022-11-21T09:28:16.347Z,8.23
2022-11-21T09:34:42.099Z,6.05
2022-11-21T09:41:46.608Z,12.60
2022-11-21T09:48:24.036Z,7.23
2022-11-21T09:54:55.602Z,11.07
2022-11-21T10:01:20.479Z,10.23
2022-11-21T10:07:58.542Z,8.77
2022-11-21T10:14:38.783Z,8.25
2022-11-21T10:21:32.816Z,7.25
2022-11-21T10:28:17.743Z,6.17
2022-11-21T10:34:45.904Z,7.72
2022-11-21T10:41:21.853Z,10.57
2022-11-21T10:47:49.302Z,9.13
2022-11-21T10:54:35.628Z,9.50
2022-11-21T11:01:00.522Z,12.10
2022-11-21T11:07:58.790Z,13.95
2022-11-21T11:14:42.043Z,15.20
2022-11-21T11:21:13.755Z,11.82
2022-11-21T11:27:49.710Z,24.52
2022-11-21T11:34:15.862Z,24.00
2022-11-21T11:40:55.759Z,17.00
2022-11-21T11:47:30.931Z,20.17
2022-11-21T11:54:01.389Z,24.17
2022-11-21T12:00:44.884Z,25.88
2022-11-21T12:14:47.049Z,26.77
2022-11-21T12:21:15.870Z,13.95
2022-11-21T12:27:41.452Z,22.30
2022-11-21T12:34:42.956Z,21.58
2022-11-21T12:41:41.961Z,18.73
2022-11-21T12:48:49.591Z,34.95
2022-11-21T12:55:35.800Z,23.70
2022-11-21T13:02:39.328Z,29.08
2022-11-21T13:09:08.178Z,24.33
2022-11-21T13:15:54.243Z,20.38
2022-11-21T13:22:36.936Z,20.73
2022-11-21T13:29:08.941Z,26.27
2022-11-21T13:35:48.866Z,12.73
2022-11-21T13:42:42.091Z,9.50
2022-11-21T13:49:11.767Z,6.15
2022-11-21T13:56:04.823Z,6.55
2022-11-21T14:02:32.604Z,6.47
2022-11-21T14:09:16.362Z,6.63
2022-11-21T14:15:51.149Z,4.67
2022-11-21T14:21:56.491Z,7.43
2022-11-21T14:28:24.438Z,4.85
2022-11-21T14:34:45.522Z,8.25
2022-11-21T14:41:23.487Z,24.58
2022-11-21T14:47:51.688Z,9.32
2022-11-21T14:54:18.304Z,5.50
2022-11-21T15:01:03.604Z,5.35
2022-11-21T15:07:32.112Z,5.20
2022-11-21T15:14:17.618Z,7.50
2022-11-21T15:20:38.269Z,6.28
2022-11-21T15:27:22.914Z,5.32
2022-11-21T15:41:00.642Z,6.45
2022-11-21T15:47:26.115Z,5.43
2022-11-21T15:53:29.928Z,5.40
2022-11-21T15:59:54.907Z,6.63
2022-11-21T16:06:19.978Z,7.88
2022-11-21T16:12:22.764Z,6.28
2022-11-21T16:18:25.275Z,9.35
2022-11-21T16:24:28.723Z,6.13
2022-11-21T16:30:30.971Z,6.93
2022-11-21T16:36:34.602Z,10.88
2022-11-21T16:42:36.928Z,8.32
2022-11-21T16:48:39.121Z,7.72
2022-11-21T16:54:41.542Z,9.82
2022-11-21T17:00:44.151Z,8.40
2022-11-21T17:06:49.168Z,10.93
2022-11-21T17:12:51.425Z,7.97
2022-11-21T17:18:54.202Z,9.88
2022-11-21T17:31:00.066Z,8.38
2022-11-21T17:37:02.459Z,9.23
2022-11-21T17:43:04.955Z,9.88
2022-11-21T17:49:07.238Z,8.80
2022-11-21T17:55:10.113Z,9.18
2022-11-21T18:01:14.218Z,12.20
2022-11-21T18:07:16.522Z,11.18
2022-11-21T18:13:18.828Z,13.15
2022-11-21T18:19:21.505Z,8.80
2022-11-21T18:31:27.931Z,11.45
2022-11-21T18:37:30.025Z,10.93
2022-11-21T18:43:32.467Z,8.80
2022-11-21T18:49:34.939Z,14.85
2022-11-21T18:55:39.355Z,10.85
2022-11-21T19:01:42.124Z,10.70
2022-11-21T19:07:44.339Z,10.55
2022-11-21T19:13:47.466Z,14.70
2022-11-21T19:19:49.992Z,14.75
2022-11-21T19:25:53.384Z,11.82
2022-11-21T19:31:56.070Z,14.15
2022-11-21T19:37:58.182Z,14.18
2022-11-21T19:44:01.324Z,15.20
2022-11-21T19:50:03.740Z,15.55
2022-11-21T19:56:17.557Z,16.33
2022-11-21T20:02:21.922Z,19.38
2022-11-21T20:08:24.199Z,20.05
2022-11-21T20:14:26.500Z,14.65
2022-11-21T20:20:28.657Z,18.65
2022-11-21T20:26:31.235Z,16.95
2022-11-21T20:32:35.192Z,21.35
2022-11-21T20:38:37.519Z,19.70
2022-11-21T20:57:24.216Z,20.88
2022-11-21T21:03:29.245Z,18.23
2022-11-21T21:09:31.702Z,21.65
2022-11-21T21:15:33.957Z,28.75
2022-11-21T21:21:36.036Z,22.65
2022-11-21T21:27:38.237Z,26.92
2022-11-21T21:33:41.025Z,22.77
2022-11-21T21:39:43.369Z,22.58
2022-11-21T21:45:45.530Z,26.45
2022-11-21T21:51:47.468Z,24.58
2022-11-21T21:57:52.446Z,24.43
2022-11-21T22:03:57.317Z,32.50
2022-11-21T22:10:01.640Z,21.92
2022-11-21T22:16:05.680Z,24.23
2022-11-21T22:22:07.842Z,23.15
2022-11-21T22:28:10.368Z,24.80
2022-11-21T22:34:16.111Z,25.38
2022-11-21T22:40:18.835Z,19.88
2022-11-21T22:52:23.652Z,28.77
2022-11-21T22:58:29.217Z,25.35
2022-11-21T23:04:31.615Z,19.73
2022-11-21T23:10:33.924Z,19.25
2022-11-21T23:16:36.123Z,21.20
2022-11-21T23:22:38.187Z,27.65
2022-11-21T23:28:40.515Z,24.40
2022-11-21T23:34:42.663Z,23.35
2022-11-21T23:40:46.919Z,30.63
2022-11-21T23:46:50.100Z,27.25
2022-11-21T23:52:52.326Z,31.70
2022-11-21T23:58:54.331Z,25.58
